Latest Weather Observations for New May Downs

IDQ60801

Issued at 11:35 pm EST Monday 1 September 2014 (issued every 30 minutes, with the page automatically refreshed every 10 minutes)

About weather observations | Map of weather stations | Latest weather observations for QLD | Other Formats
Station Details ID: 037059 Name: NEW MAY DOWNS Lat: -20.59 Lon: 139.34 Height: 392.0 m
Data from the previous 72 hours. | See also: Recent months for locations in Queensland
Date/Time
EST
Temp
°C
App
Temp
°C
Dew
Point
Rel
Hum
%
Delta-T
°C
Wind Press
QNH
hPa
Press
MSL
hPa
Rain
since 9 am
mm
Dir
 
Spd
km/h
Gust
km/h
Spd
kts
Gust
kts
01/11:30pm 19.3 15.9 -5.6 18 10.0 SW 4 6 2 3 - - 0.0
01/11:00pm 18.6 16.0 -5.4 19 9.6 SSW 0 4 0 2 - - 0.0
01/10:30pm 20.3 17.0 -4.8 18 10.3 SW 4 6 2 3 - - 0.0
01/10:00pm 21.2 17.8 -5.6 16 10.9 SW 4 7 2 4 - - 0.0
01/09:30pm 22.8 18.8 -5.2 15 11.7 WSW 7 9 4 5 - - 0.0
01/09:00pm 22.0 17.7 -4.9 16 11.2 WSW 9 9 5 5 - - 0.0
01/08:30pm 23.8 19.5 -5.3 14 12.2 W 9 11 5 6 - - 0.0
01/08:00pm 24.4 20.4 -5.8 13 12.7 WSW 7 9 4 5 - - 0.0
01/07:30pm 25.0 20.6 -6.3 12 13.1 WSW 9 9 5 5 - - 0.0
01/07:00pm 26.2 22.1 -6.5 11 13.7 WSW 7 9 4 5 - - 0.0
01/06:30pm 28.3 24.2 -6.2 10 14.9 WSW 7 9 4 5 - - 0.0
01/06:00pm 29.7 24.5 -6.5 9 15.7 WSW 13 19 7 10 - - 0.0
01/05:30pm 30.3 25.1 -6.1 9 16.0 WSW 13 22 7 12 - - 0.0
01/05:00pm 30.8 26.0 -5.7 9 16.2 SW 11 22 6 12 - - 0.0
01/04:30pm 31.9 28.0 -4.9 9 16.7 WSW 7 19 4 10 - - 0.0
01/04:00pm 31.4 27.1 -5.2 9 16.5 WNW 9 17 5 9 - - 0.0
01/03:30pm 30.4 25.6 -6.0 9 16.0 W 11 19 6 10 - - 0.0
01/03:00pm 30.5 26.1 -5.9 9 16.1 W 9 20 5 11 - - 0.0
01/02:30pm 30.6 26.2 -5.8 9 16.1 W 9 17 5 9 - - 0.0
01/02:00pm 29.5 26.1 -5.3 10 15.4 ESE 4 11 2 6 - - 0.0
01/01:30pm 29.2 25.2 -5.5 10 15.2 WNW 7 15 4 8 - - 0.0
01/01:00pm 29.8 25.9 -5.1 10 15.5 NNE 7 13 4 7 - - 0.0
01/12:30pm 29.1 25.4 -4.3 11 15.0 NW 6 13 3 7 - - 0.0
01/12:00pm 29.0 25.3 -4.4 11 14.9 ENE 6 11 3 6 - - 0.0
01/11:30am 27.6 23.9 -4.3 12 14.1 S 6 9 3 5 - - 0.0
01/11:00am 27.8 23.2 -4.2 12 14.2 NE 11 24 6 13 - - 0.0
01/10:30am 27.5 23.0 -3.3 13 13.9 NNE 11 20 6 11 - - 0.0
01/10:00am 26.6 21.4 -3.1 14 13.3 ENE 15 20 8 11 - - 0.0
01/09:30am 25.7 20.5 -2.8 15 12.8 ENE 15 22 8 12 - - 0.0
01/09:00am 24.7 21.3 -2.0 17 12.0 NE 6 9 3 5 - - 0.0
01/08:30am 21.4 18.2 -3.1 19 10.5 ENE 4 4 2 2 - - 0.0
01/08:00am 18.7 16.3 -3.4 22 9.2 CALM 0 2 0 1 - - 0.0
01/07:30am 16.9 14.2 -2.7 26 8.1 E 2 4 1 2 - - 0.0
01/07:00am 15.3 12.1 -3.1 28 7.5 E 4 6 2 3 - - 0.0
01/06:30am 15.3 12.5 -3.1 28 7.5 SE 2 4 1 2 - - 0.0
01/06:00am 14.9 12.1 -3.4 28 7.3 ESE 2 2 1 1 - - 0.0
01/05:30am 15.1 11.6 -3.2 28 7.4 ESE 6 6 3 3 - - 0.0
01/05:00am 14.9 11.7 -3.4 28 7.3 SSE 4 6 2 3 - - 0.0
01/04:30am 14.6 11.6 -4.7 26 7.5 E 2 4 1 2 - - 0.0
01/04:00am 17.5 14.7 -3.3 24 8.6 NE 2 4 1 2 - - 0.0
01/03:30am 17.3 14.5 -3.4 24 8.5 NE 2 4 1 2 - - 0.0
01/03:00am 17.2 13.9 -4.1 23 8.6 NE 4 6 2 3 - - 0.0
01/02:30am 17.8 15.0 -3.6 23 8.8 E 2 4 1 2 - - 0.0
01/02:00am 17.9 14.2 -4.1 22 9.0 ESE 6 7 3 4 - - 0.0
01/01:30am 18.5 14.6 -4.2 21 9.3 ESE 7 9 4 5 - - 0.0
01/01:00am 18.5 14.8 -4.2 21 9.3 E 6 7 3 4 - - 0.0
01/12:30am 18.8 15.1 -4.6 20 9.5 ESE 6 9 3 5 - - 0.0
01/12:00am 19.7 16.1 -3.9 20 9.8 E 6 6 3 3 - - 0.0
 
Date/Time
EST
Temp
°C
App
Temp
°C
Dew
Point
Rel
Hum
%
Delta-T
°C
Wind Press
QNH
hPa
Press
MSL
hPa
Rain
since 9 am
mm
Dir
 
Spd
km/h
Gust
km/h
Spd
kts
Gust
kts
31/11:30pm 19.5 16.2 -4.0 20 9.7 E 4 4 2 2 - - 0.0
31/11:00pm 19.3 16.0 -4.2 20 9.7 ESE 4 4 2 2 - - 0.0
31/10:30pm 19.6 17.1 -3.9 20 9.8 CALM 0 4 0 2 - - 0.0
31/10:00pm 20.0 16.8 -3.6 20 9.9 SSE 4 6 2 3 - - 0.0
31/09:30pm 17.3 14.2 -6.5 19 9.2 E 2 6 1 3 - - 0.0
31/09:00pm 21.0 18.5 -4.2 18 10.6 CALM 0 0 0 0 - - 0.0
31/08:30pm 20.6 17.7 -3.8 19 10.3 S 2 4 1 2 - - 0.0
31/08:00pm 22.8 19.5 -4.3 16 11.5 S 4 4 2 2 - - 0.0
31/07:30pm 23.8 20.4 -5.3 14 12.2 SE 4 6 2 3 - - 0.0
31/07:00pm 24.7 20.7 -5.5 13 12.8 SSE 7 9 4 5 - - 0.0
31/06:30pm 26.0 22.1 -4.5 13 13.3 SE 7 15 4 8 - - 0.0
31/06:00pm 27.1 23.3 -5.9 11 14.1 SE 6 11 3 6 - - 0.0
31/05:30pm 27.9 23.6 -5.2 11 14.5 SSE 9 24 5 13 - - 0.0
31/05:00pm 28.1 23.0 -5.1 11 14.6 SSE 13 20 7 11 - - 0.0
31/04:30pm 28.5 23.7 -6.0 10 14.9 SSE 11 22 6 12 - - 0.0
31/04:00pm 28.5 24.2 -4.8 11 14.7 SE 9 24 5 13 - - 0.0
31/03:30pm 28.1 23.0 -5.1 11 14.6 SSE 13 22 7 12 - - 0.0
31/03:00pm 28.1 24.2 -5.1 11 14.6 S 7 17 4 9 - - 0.0
31/02:30pm 28.0 23.3 -5.2 11 14.5 S 11 20 6 11 - - 0.0
31/02:00pm 27.7 23.5 -4.3 12 14.2 SSE 9 20 5 11 - - 0.0
31/01:30pm 27.4 23.3 -3.4 13 13.8 SE 9 20 5 11 - - 0.0
31/01:00pm 27.8 24.1 -3.1 13 14.0 SSE 7 15 4 8 - - 0.0
31/12:30pm 26.7 23.0 -3.0 14 13.4 N 7 15 4 8 - - 0.0
31/12:00pm 26.8 23.2 -2.0 15 13.2 E 7 15 4 8 - - 0.0
31/11:30am 26.4 21.6 -2.3 15 13.1 ESE 13 26 7 14 - - 0.0
31/11:00am 26.0 20.9 -1.7 16 12.7 E 15 26 8 14 - - 0.0
31/10:30am 26.1 21.2 -0.8 17 12.5 E 15 26 8 14 - - 0.0
31/10:00am 24.8 19.4 -1.1 18 11.9 E 17 24 9 13 - - 0.0
31/09:30am 24.4 19.4 -1.4 18 11.7 E 15 22 8 12 - - 0.0
31/09:00am 22.4 17.7 -1.6 20 10.7 E 13 17 7 9 - - 0.0
31/08:30am 20.2 16.9 -1.0 24 9.4 E 6 9 3 5 - - 0.0
31/08:00am 17.9 14.9 -1.9 26 8.4 ESE 4 7 2 4 - - 0.0
31/07:30am 16.4 13.0 -1.7 29 7.6 ESE 6 7 3 4 - - 0.0
31/07:00am 15.4 12.4 -1.6 31 7.1 ESE 4 9 2 5 - - 0.0
31/06:30am 15.6 12.7 -1.4 31 7.2 SE 4 7 2 4 - - 0.0
31/06:00am 16.0 12.5 -1.5 30 7.4 ESE 7 9 4 5 - - 0.0
31/05:30am 16.0 12.7 -1.1 31 7.3 ESE 6 9 3 5 - - 0.0
31/05:00am 16.0 12.7 -1.1 31 7.3 ESE 6 9 3 5 - - 0.0
31/04:30am 16.4 13.2 -0.8 31 7.4 ESE 6 9 3 5 - - 0.0
31/04:00am 16.3 13.1 -0.8 31 7.3 ESE 6 9 3 5 - - 0.0
31/03:30am 16.7 13.4 -0.9 30 7.6 SE 6 9 3 5 - - 0.0
31/03:00am 16.8 13.4 -0.9 30 7.6 SE 7 9 4 5 - - 0.0
31/02:30am 17.0 13.2 -0.7 30 7.7 SE 9 11 5 6 - - 0.0
31/02:00am 17.6 14.3 -0.2 30 7.8 SE 7 11 4 6 - - 0.0
31/01:30am 17.1 13.7 -0.6 30 7.7 SE 7 9 4 5 - - 0.0
31/01:00am 17.3 13.9 -0.9 29 7.9 SE 7 9 4 5 - - 0.0
31/12:30am 18.8 15.7 -0.1 28 8.4 E 6 7 3 4 - - 0.0
31/12:00am 19.0 15.9 0.1 28 8.5 ESE 6 7 3 4 - - 0.0
 
Date/Time
EST
Temp
°C
App
Temp
°C
Dew
Point
Rel
Hum
%
Delta-T
°C
Wind Press
QNH
hPa
Press
MSL
hPa
Rain
since 9 am
mm
Dir
 
Spd
km/h
Gust
km/h
Spd
kts
Gust
kts
30/11:30pm 19.0 15.3 0.1 28 8.5 NE 9 11 5 6 - - 0.0
30/11:00pm 19.5 16.3 -0.5 26 8.9 SSE 6 9 3 5 - - 0.0
30/10:30pm 19.9 16.7 -0.7 25 9.2 SSE 6 7 3 4 - - 0.0
30/10:00pm 21.4 18.1 0.0 24 9.8 S 7 11 4 6 - - 0.0
30/09:30pm 19.7 16.3 -2.0 23 9.4 S 6 9 3 5 - - 0.0
30/09:00pm 20.3 17.0 -1.5 23 9.6 SE 6 7 3 4 - - 0.0
30/08:30pm 22.0 18.7 -1.3 21 10.4 S 6 7 3 4 - - 0.0
30/08:00pm 23.0 19.5 -1.1 20 10.9 SSE 7 9 4 5 - - 0.0
30/07:30pm 23.7 19.8 -1.3 19 11.3 SSE 9 11 5 6 - - 0.0
30/07:00pm 23.9 20.3 -1.8 18 11.6 SE 7 7 4 4 - - 0.0
30/06:30pm 25.3 21.3 -2.3 16 12.4 ESE 9 13 5 7 - - 0.0
30/06:00pm 26.5 22.6 -1.3 16 12.9 SE 9 15 5 8 - - 0.0
30/05:30pm 27.3 23.4 -1.6 15 13.4 E 9 19 5 10 - - 0.0
30/05:00pm 27.5 24.0 -1.4 15 13.5 E 7 13 4 7 - - 0.0
30/04:30pm 27.7 23.3 -2.2 14 13.8 SE 11 19 6 10 - - 0.0
30/04:00pm 27.9 24.4 -1.1 15 13.6 SSE 7 19 4 10 - - 0.0
30/03:30pm 28.2 24.4 -0.9 15 13.8 E 9 15 5 8 - - 0.0
30/03:00pm 28.5 24.7 -0.6 15 13.9 SSE 9 19 5 10 - - 0.0
30/02:30pm 27.0 23.7 -0.1 17 12.9 N 7 17 4 9 - - 0.0
30/02:00pm 27.3 24.1 -0.7 16 13.2 E 6 11 3 6 - - 0.0
30/01:30pm 27.5 24.4 0.3 17 13.1 SE 6 11 3 6 - - 0.0
30/01:00pm 26.3 21.9 0.1 18 12.4 NE 13 26 7 14 - - 0.0
30/12:30pm 27.1 21.9 0.0 17 12.9 ENE 17 26 9 14 - - 0.0
30/12:00pm 26.2 22.4 -0.8 17 12.6 ENE 9 19 5 10 - - 0.0
30/11:30am 25.8 20.2 1.2 20 11.9 E 20 32 11 17 - - 0.0
30/11:00am 25.6 20.1 1.7 21 11.6 ENE 20 28 11 15 - - 0.0
30/10:30am 24.3 17.9 1.2 22 11.0 E 24 32 13 17 - - 0.0
30/10:00am 24.1 19.1 1.1 22 10.9 ESE 17 26 9 14 - - 0.0
30/09:30am 22.7 17.9 -0.1 22 10.5 E 15 24 8 13 - - 0.0
30/09:00am 21.2 17.3 -1.3 22 10.0 ESE 9 15 5 8 - - 0.0
30/08:30am 19.2 15.2 -2.4 23 9.2 ESE 9 15 5 8 - - 0.0
30/08:00am 16.7 13.4 -4.5 23 8.5 SE 4 7 2 4 - - 0.0
30/07:30am 15.2 11.3 -4.7 25 7.8 SE 7 11 4 6 - - 0.0
30/07:00am 13.9 10.6 -4.8 27 7.2 SE 4 7 2 4 - - 0.0
30/06:30am 14.0 10.6 -5.2 26 7.3 SSE 4 7 2 4 - - 0.0
30/06:00am 14.0 10.2 -5.7 25 7.4 SSE 6 7 3 4 - - 0.0
30/05:30am 14.8 11.0 -5.5 24 7.8 SE 6 7 3 4 - - 0.0
30/05:00am 14.6 11.2 -5.7 24 7.7 S 4 6 2 3 - - 0.0
30/04:30am 15.1 11.1 -5.9 23 8.0 SE 7 9 4 5 - - 0.0
30/04:00am 15.3 11.3 -5.7 23 8.0 SSE 7 7 4 4 - - 0.0
30/03:30am 15.8 11.4 -5.8 22 8.3 SSE 9 11 5 6 - - 0.0
30/03:00am 16.4 11.9 -6.6 20 8.7 SSE 9 15 5 8 - - 0.0
30/02:30am 16.8 11.5 -6.9 19 9.0 SSE 13 17 7 9 - - 0.0
30/02:00am 16.8 11.9 -6.9 19 9.0 SSE 11 17 6 9 - - 0.0
30/01:30am 17.1 11.8 -7.4 18 9.2 SSE 13 19 7 10 - - 0.0
30/01:00am 17.2 12.3 -7.3 18 9.3 SSE 11 17 6 9 - - 0.0
30/12:30am 17.1 12.2 -7.4 18 9.2 SE 11 15 6 8 - - 0.0
30/12:00am 17.1 12.2 -7.4 18 9.2 SSE 11 13 6 7 - - 0.0

Other Formats:

Comma delimited format used in spreadsheet applications
http://www.bom.gov.au/fwo/IDQ60801/IDQ60801.94349.axf

JavaScript Object Notation format (JSON) in row-major order
http://www.bom.gov.au/fwo/IDQ60801/IDQ60801.94349.json